sensor_id;sensor_type;location;lat;lon;timestamp;temperature;humidity
73277;DHT22;61501;43.316;5.372;2022-11-15T00:00:49;15.50;99.90
73277;DHT22;61501;43.316;5.372;2022-11-15T00:03:16;15.50;99.90
73277;DHT22;61501;43.316;5.372;2022-11-15T00:05:43;15.50;99.90
73277;DHT22;61501;43.316;5.372;2022-11-15T00:08:09;15.50;99.90
73277;DHT22;61501;43.316;5.372;2022-11-15T00:10:36;15.50;99.90
73277;DHT22;61501;43.316;5.372;2022-11-15T00:13:06;15.50;99.90
73277;DHT22;61501;43.316;5.372;2022-11-15T00:15:33;15.50;99.90
73277;DHT22;61501;43.316;5.372;2022-11-15T00:17:59;15.60;99.90
73277;DHT22;61501;43.316;5.372;2022-11-15T00:20:25;15.50;99.90
73277;DHT22;61501;43.316;5.372;2022-11-15T00:22:50;15.60;99.90
73277;DHT22;61501;43.316;5.372;2022-11-15T00:25:16;15.60;99.90
73277;DHT22;61501;43.316;5.372;2022-11-15T00:27:41;15.60;99.90
73277;DHT22;61501;43.316;5.372;2022-11-15T00:30:08;15.50;99.90
73277;DHT22;61501;43.316;5.372;2022-11-15T00:32:33;15.50;99.90
73277;DHT22;61501;43.316;5.372;2022-11-15T00:34:59;15.50;99.90
73277;DHT22;61501;43.316;5.372;2022-11-15T00:37:24;15.50;99.90
73277;DHT22;61501;43.316;5.372;2022-11-15T00:39:50;15.50;99.90
73277;DHT22;61501;43.316;5.372;2022-11-15T00:42:16;15.60;99.90
73277;DHT22;61501;43.316;5.372;2022-11-15T00:44:41;15.60;99.90
73277;DHT22;61501;43.316;5.372;2022-11-15T00:47:07;15.60;99.90
73277;DHT22;61501;43.316;5.372;2022-11-15T00:49:33;15.60;99.90
73277;DHT22;61501;43.316;5.372;2022-11-15T00:51:58;15.60;99.90
73277;DHT22;61501;43.316;5.372;2022-11-15T00:54:24;15.60;99.90
73277;DHT22;61501;43.316;5.372;2022-11-15T00:57:15;15.50;99.90
73277;DHT22;61501;43.316;5.372;2022-11-15T00:59:40;15.50;99.90
73277;DHT22;61501;43.316;5.372;2022-11-15T01:02:06;15.50;99.90
73277;DHT22;61501;43.316;5.372;2022-11-15T01:04:31;15.50;99.90
73277;DHT22;61501;43.316;5.372;2022-11-15T01:06:57;15.50;99.90
73277;DHT22;61501;43.316;5.372;2022-11-15T01:09:23;15.40;99.90
73277;DHT22;61501;43.316;5.372;2022-11-15T01:11:48;15.40;99.90
73277;DHT22;61501;43.316;5.372;2022-11-15T01:14:14;15.40;99.90
73277;DHT22;61501;43.316;5.372;2022-11-15T01:16:40;15.40;99.90
73277;DHT22;61501;43.316;5.372;2022-11-15T01:19:05;15.40;99.90
73277;DHT22;61501;43.316;5.372;2022-11-15T01:21:31;15.40;99.90
73277;DHT22;61501;43.316;5.372;2022-11-15T01:23:57;15.30;99.90
73277;DHT22;61501;43.316;5.372;2022-11-15T01:26:24;15.30;99.90
73277;DHT22;61501;43.316;5.372;2022-11-15T01:28:49;15.30;99.90
73277;DHT22;61501;43.316;5.372;2022-11-15T01:31:17;15.30;99.90
73277;DHT22;61501;43.316;5.372;2022-11-15T01:33:44;15.30;99.90
73277;DHT22;61501;43.316;5.372;2022-11-15T01:36:18;15.30;99.90
73277;DHT22;61501;43.316;5.372;2022-11-15T01:38:44;15.20;99.90
73277;DHT22;61501;43.316;5.372;2022-11-15T01:41:18;15.20;99.90
73277;DHT22;61501;43.316;5.372;2022-11-15T01:43:47;15.30;99.90
73277;DHT22;61501;43.316;5.372;2022-11-15T01:46:32;15.20;99.90
73277;DHT22;61501;43.316;5.372;2022-11-15T01:49:02;15.30;99.90
73277;DHT22;61501;43.316;5.372;2022-11-15T01:51:31;15.30;99.90
73277;DHT22;61501;43.316;5.372;2022-11-15T01:54:04;15.20;99.90
73277;DHT22;61501;43.316;5.372;2022-11-15T01:56:33;15.30;99.90
73277;DHT22;61501;43.316;5.372;2022-11-15T01:59:03;15.20;99.90
73277;DHT22;61501;43.316;5.372;2022-11-15T02:01:30;15.20;99.90
73277;DHT22;61501;43.316;5.372;2022-11-15T02:04:06;15.20;99.90
73277;DHT22;61501;43.316;5.372;2022-11-15T02:06:35;15.20;99.90
73277;DHT22;61501;43.316;5.372;2022-11-15T02:09:01;15.20;99.90
73277;DHT22;61501;43.316;5.372;2022-11-15T02:11:27;15.20;99.90
73277;DHT22;61501;43.316;5.372;2022-11-15T02:13:54;15.30;99.90
73277;DHT22;61501;43.316;5.372;2022-11-15T02:27:48;15.30;99.90
73277;DHT22;61501;43.316;5.372;2022-11-15T02:30:32;15.30;99.90
73277;DHT22;61501;43.316;5.372;2022-11-15T02:41:57;15.30;99.90
73277;DHT22;61501;43.316;5.372;2022-11-15T02:44:26;15.30;99.90
73277;DHT22;61501;43.316;5.372;2022-11-15T02:46:58;15.30;99.90
73277;DHT22;61501;43.316;5.372;2022-11-15T02:50:07;15.30;99.90
73277;DHT22;61501;43.316;5.372;2022-11-15T02:52:33;15.30;99.90
73277;DHT22;61501;43.316;5.372;2022-11-15T02:55:00;15.30;99.90
73277;DHT22;61501;43.316;5.372;2022-11-15T02:57:52;15.30;99.90
73277;DHT22;61501;43.316;5.372;2022-11-15T03:00:21;15.30;99.90
73277;DHT22;61501;43.316;5.372;2022-11-15T03:05:54;15.30;99.90
73277;DHT22;61501;43.316;5.372;2022-11-15T03:08:31;15.30;99.90
73277;DHT22;61501;43.316;5.372;2022-11-15T03:11:11;15.30;99.90
73277;DHT22;61501;43.316;5.372;2022-11-15T03:13:39;15.30;99.90
73277;DHT22;61501;43.316;5.372;2022-11-15T03:19:05;15.30;99.90
73277;DHT22;61501;43.316;5.372;2022-11-15T03:21:33;15.20;99.90
73277;DHT22;61501;43.316;5.372;2022-11-15T03:24:03;15.30;99.90
73277;DHT22;61501;43.316;5.372;2022-11-15T03:26:32;15.30;99.90
73277;DHT22;61501;43.316;5.372;2022-11-15T03:29:06;15.30;99.90
73277;DHT22;61501;43.316;5.372;2022-11-15T03:31:37;15.30;99.90
73277;DHT22;61501;43.316;5.372;2022-11-15T03:36:59;15.30;99.90
73277;DHT22;61501;43.316;5.372;2022-11-15T03:39:25;15.30;99.90
73277;DHT22;61501;43.316;5.372;2022-11-15T03:48:00;15.30;99.90
73277;DHT22;61501;43.316;5.372;2022-11-15T03:50:24;15.30;99.90
73277;DHT22;61501;43.316;5.372;2022-11-15T03:52:50;15.30;99.90
73277;DHT22;61501;43.316;5.372;2022-11-15T03:55:19;15.30;99.90
73277;DHT22;61501;43.316;5.372;2022-11-15T03:57:46;15.30;99.90
73277;DHT22;61501;43.316;5.372;2022-11-15T04:00:13;15.30;99.90
73277;DHT22;61501;43.316;5.372;2022-11-15T04:02:39;15.30;99.90
73277;DHT22;61501;43.316;5.372;2022-11-15T04:05:05;15.30;99.90
73277;DHT22;61501;43.316;5.372;2022-11-15T04:07:30;15.30;99.90
73277;DHT22;61501;43.316;5.372;2022-11-15T04:09:56;15.30;99.90
73277;DHT22;61501;43.316;5.372;2022-11-15T04:12:33;15.30;99.90
73277;DHT22;61501;43.316;5.372;2022-11-15T04:15:05;15.30;99.90
73277;DHT22;61501;43.316;5.372;2022-11-15T04:17:44;15.30;99.90
73277;DHT22;61501;43.316;5.372;2022-11-15T04:20:11;15.30;99.90
73277;DHT22;61501;43.316;5.372;2022-11-15T04:22:56;15.30;99.90
73277;DHT22;61501;43.316;5.372;2022-11-15T04:25:41;15.30;99.90
73277;DHT22;61501;43.316;5.372;2022-11-15T04:28:07;15.30;99.90
73277;DHT22;61501;43.316;5.372;2022-11-15T04:30:33;15.30;99.90
73277;DHT22;61501;43.316;5.372;2022-11-15T04:32:59;15.30;99.90
73277;DHT22;61501;43.316;5.372;2022-11-15T04:35:25;15.30;99.90
73277;DHT22;61501;43.316;5.372;2022-11-15T04:37:50;15.30;99.90
73277;DHT22;61501;43.316;5.372;2022-11-15T04:40:16;15.30;99.90
73277;DHT22;61501;43.316;5.372;2022-11-15T04:42:42;15.30;99.90
73277;DHT22;61501;43.316;5.372;2022-11-15T04:45:09;15.30;99.90
73277;DHT22;61501;43.316;5.372;2022-11-15T04:47:35;15.30;99.90
73277;DHT22;61501;43.316;5.372;2022-11-15T04:50:00;15.30;99.90
73277;DHT22;61501;43.316;5.372;2022-11-15T04:52:26;15.30;99.90
73277;DHT22;61501;43.316;5.372;2022-11-15T04:54:52;15.30;99.90
73277;DHT22;61501;43.316;5.372;2022-11-15T04:57:18;15.20;99.90
73277;DHT22;61501;43.316;5.372;2022-11-15T04:59:44;15.20;99.90
73277;DHT22;61501;43.316;5.372;2022-11-15T05:02:09;15.20;99.90
73277;DHT22;61501;43.316;5.372;2022-11-15T05:04:35;15.20;99.90
73277;DHT22;61501;43.316;5.372;2022-11-15T05:07:01;15.20;99.90
73277;DHT22;61501;43.316;5.372;2022-11-15T05:09:27;15.20;99.90
73277;DHT22;61501;43.316;5.372;2022-11-15T05:11:53;15.20;99.90
73277;DHT22;61501;43.316;5.372;2022-11-15T05:14:18;15.20;99.90
73277;DHT22;61501;43.316;5.372;2022-11-15T05:16:44;15.20;99.90
73277;DHT22;61501;43.316;5.372;2022-11-15T05:19:10;15.20;99.90
73277;DHT22;61501;43.316;5.372;2022-11-15T05:21:35;15.10;99.90
73277;DHT22;61501;43.316;5.372;2022-11-15T05:24:02;15.20;99.90
73277;DHT22;61501;43.316;5.372;2022-11-15T05:26:34;15.10;99.90
73277;DHT22;61501;43.316;5.372;2022-11-15T05:29:00;15.10;99.90
73277;DHT22;61501;43.316;5.372;2022-11-15T05:31:27;15.10;99.90
73277;DHT22;61501;43.316;5.372;2022-11-15T05:33:54;15.20;99.90
73277;DHT22;61501;43.316;5.372;2022-11-15T05:36:38;15.10;99.90
73277;DHT22;61501;43.316;5.372;2022-11-15T05:39:07;15.10;99.90
73277;DHT22;61501;43.316;5.372;2022-11-15T05:42:04;15.10;99.90
73277;DHT22;61501;43.316;5.372;2022-11-15T05:44:31;15.10;99.90
73277;DHT22;61501;43.316;5.372;2022-11-15T05:46:58;15.10;99.90
73277;DHT22;61501;43.316;5.372;2022-11-15T05:49:27;15.10;99.90
73277;DHT22;61501;43.316;5.372;2022-11-15T05:51:55;15.10;99.90
73277;DHT22;61501;43.316;5.372;2022-11-15T05:54:22;15.10;99.90
73277;DHT22;61501;43.316;5.372;2022-11-15T05:56:49;15.10;99.90
73277;DHT22;61501;43.316;5.372;2022-11-15T05:59:15;15.10;99.90
73277;DHT22;61501;43.316;5.372;2022-11-15T06:01:41;15.10;99.90
73277;DHT22;61501;43.316;5.372;2022-11-15T06:04:07;15.10;99.90
73277;DHT22;61501;43.316;5.372;2022-11-15T06:06:32;15.00;99.90
73277;DHT22;61501;43.316;5.372;2022-11-15T06:08:58;15.10;99.90
73277;DHT22;61501;43.316;5.372;2022-11-15T06:11:24;15.10;99.90
73277;DHT22;61501;43.316;5.372;2022-11-15T06:13:49;15.10;99.90
73277;DHT22;61501;43.316;5.372;2022-11-15T06:16:15;15.10;99.90
73277;DHT22;61501;43.316;5.372;2022-11-15T06:18:40;15.20;99.90
73277;DHT22;61501;43.316;5.372;2022-11-15T06:21:06;15.20;99.90
73277;DHT22;61501;43.316;5.372;2022-11-15T06:23:33;15.20;99.90
73277;DHT22;61501;43.316;5.372;2022-11-15T06:26:00;15.20;99.90
73277;DHT22;61501;43.316;5.372;2022-11-15T06:28:32;15.20;99.90
73277;DHT22;61501;43.316;5.372;2022-11-15T06:31:09;15.30;99.90
73277;DHT22;61501;43.316;5.372;2022-11-15T06:33:41;15.30;99.90
73277;DHT22;61501;43.316;5.372;2022-11-15T06:36:09;15.40;99.90
73277;DHT22;61501;43.316;5.372;2022-11-15T06:38:35;15.40;99.90
73277;DHT22;61501;43.316;5.372;2022-11-15T06:41:07;15.40;99.90
73277;DHT22;61501;43.316;5.372;2022-11-15T06:43:33;15.40;99.90
73277;DHT22;61501;43.316;5.372;2022-11-15T06:46:00;15.40;99.90
73277;DHT22;61501;43.316;5.372;2022-11-15T06:48:27;15.40;99.90
73277;DHT22;61501;43.316;5.372;2022-11-15T06:50:58;15.50;99.90
73277;DHT22;61501;43.316;5.372;2022-11-15T06:53:24;15.50;99.90
73277;DHT22;61501;43.316;5.372;2022-11-15T06:55:50;15.50;99.90
73277;DHT22;61501;43.316;5.372;2022-11-15T06:58:16;15.40;99.90
73277;DHT22;61501;43.316;5.372;2022-11-15T07:00:42;15.50;99.90
73277;DHT22;61501;43.316;5.372;2022-11-15T07:03:08;15.50;99.90
73277;DHT22;61501;43.316;5.372;2022-11-15T07:05:35;15.50;99.90
73277;DHT22;61501;43.316;5.372;2022-11-15T07:08:01;15.60;99.90
73277;DHT22;61501;43.316;5.372;2022-11-15T07:10:27;15.70;99.90
73277;DHT22;61501;43.316;5.372;2022-11-15T07:12:54;15.70;99.90
73277;DHT22;61501;43.316;5.372;2022-11-15T07:15:22;15.80;99.90
73277;DHT22;61501;43.316;5.372;2022-11-15T07:17:49;15.80;99.90
73277;DHT22;61501;43.316;5.372;2022-11-15T07:20:15;15.80;99.90
73277;DHT22;61501;43.316;5.372;2022-11-15T07:22:41;15.80;99.90
73277;DHT22;61501;43.316;5.372;2022-11-15T07:25:07;15.90;99.90
73277;DHT22;61501;43.316;5.372;2022-11-15T07:27:33;15.90;99.90
73277;DHT22;61501;43.316;5.372;2022-11-15T07:29:59;15.90;99.90
73277;DHT22;61501;43.316;5.372;2022-11-15T07:32:25;15.90;99.90
73277;DHT22;61501;43.316;5.372;2022-11-15T07:34:50;15.90;99.90
73277;DHT22;61501;43.316;5.372;2022-11-15T07:37:16;15.90;99.90
73277;DHT22;61501;43.316;5.372;2022-11-15T07:39:42;15.90;99.90
73277;DHT22;61501;43.316;5.372;2022-11-15T07:42:08;15.90;99.90
73277;DHT22;61501;43.316;5.372;2022-11-15T07:44:52;16.00;99.90
73277;DHT22;61501;43.316;5.372;2022-11-15T07:47:18;16.00;99.90
73277;DHT22;61501;43.316;5.372;2022-11-15T07:49:44;16.00;99.90
73277;DHT22;61501;43.316;5.372;2022-11-15T07:52:11;16.10;99.90
73277;DHT22;61501;43.316;5.372;2022-11-15T07:54:37;16.10;99.90
73277;DHT22;61501;43.316;5.372;2022-11-15T07:57:03;16.10;99.90
73277;DHT22;61501;43.316;5.372;2022-11-15T07:59:29;16.20;99.90
73277;DHT22;61501;43.316;5.372;2022-11-15T08:01:54;16.30;99.90
73277;DHT22;61501;43.316;5.372;2022-11-15T08:04:20;16.30;99.90
73277;DHT22;61501;43.316;5.372;2022-11-15T08:06:45;16.30;99.90
73277;DHT22;61501;43.316;5.372;2022-11-15T08:09:11;16.30;99.90
73277;DHT22;61501;43.316;5.372;2022-11-15T08:11:37;16.40;99.90
73277;DHT22;61501;43.316;5.372;2022-11-15T08:14:02;16.40;99.90
73277;DHT22;61501;43.316;5.372;2022-11-15T08:16:28;16.40;99.90
73277;DHT22;61501;43.316;5.372;2022-11-15T08:18:53;16.40;99.90
73277;DHT22;61501;43.316;5.372;2022-11-15T08:21:20;16.40;99.90
73277;DHT22;61501;43.316;5.372;2022-11-15T08:23:46;16.40;99.90
73277;DHT22;61501;43.316;5.372;2022-11-15T08:26:11;16.40;99.90
73277;DHT22;61501;43.316;5.372;2022-11-15T08:28:38;16.40;99.90
73277;DHT22;61501;43.316;5.372;2022-11-15T08:31:04;16.40;99.90
73277;DHT22;61501;43.316;5.372;2022-11-15T08:33:31;16.30;99.90
73277;DHT22;61501;43.316;5.372;2022-11-15T08:35:57;16.40;99.90
73277;DHT22;61501;43.316;5.372;2022-11-15T08:38:23;16.50;99.90
73277;DHT22;61501;43.316;5.372;2022-11-15T08:40:51;16.50;99.90
73277;DHT22;61501;43.316;5.372;2022-11-15T08:43:17;16.60;99.90
73277;DHT22;61501;43.316;5.372;2022-11-15T08:45:42;16.70;99.90
73277;DHT22;61501;43.316;5.372;2022-11-15T08:48:08;16.70;99.90
73277;DHT22;61501;43.316;5.372;2022-11-15T08:50:34;16.70;99.90
73277;DHT22;61501;43.316;5.372;2022-11-15T08:53:10;16.70;99.90
73277;DHT22;61501;43.316;5.372;2022-11-15T08:55:37;16.70;99.90
73277;DHT22;61501;43.316;5.372;2022-11-15T08:58:03;16.70;99.90
73277;DHT22;61501;43.316;5.372;2022-11-15T09:00:28;16.70;99.90
73277;DHT22;61501;43.316;5.372;2022-11-15T09:02:54;16.80;99.90
73277;DHT22;61501;43.316;5.372;2022-11-15T09:05:20;16.80;99.90
73277;DHT22;61501;43.316;5.372;2022-11-15T09:07:45;16.90;99.90
73277;DHT22;61501;43.316;5.372;2022-11-15T09:10:11;16.90;99.90
73277;DHT22;61501;43.316;5.372;2022-11-15T09:12:37;17.00;99.90
73277;DHT22;61501;43.316;5.372;2022-11-15T09:15:04;17.10;99.90
73277;DHT22;61501;43.316;5.372;2022-11-15T09:17:30;17.10;99.90
73277;DHT22;61501;43.316;5.372;2022-11-15T09:19:55;17.30;99.90
73277;DHT22;61501;43.316;5.372;2022-11-15T09:22:21;17.40;99.90
73277;DHT22;61501;43.316;5.372;2022-11-15T09:24:46;17.40;99.90
73277;DHT22;61501;43.316;5.372;2022-11-15T09:27:12;17.40;99.90
73277;DHT22;61501;43.316;5.372;2022-11-15T09:29:38;17.40;99.90
73277;DHT22;61501;43.316;5.372;2022-11-15T09:32:04;17.40;99.90
73277;DHT22;61501;43.316;5.372;2022-11-15T09:34:30;17.40;99.90
73277;DHT22;61501;43.316;5.372;2022-11-15T09:36:55;17.50;99.90
73277;DHT22;61501;43.316;5.372;2022-11-15T09:39:21;17.50;99.90
73277;DHT22;61501;43.316;5.372;2022-11-15T09:50:14;17.80;99.90
73277;DHT22;61501;43.316;5.372;2022-11-15T09:52:43;17.90;99.90
73277;DHT22;61501;43.316;5.372;2022-11-15T09:55:11;17.90;99.50
73277;DHT22;61501;43.316;5.372;2022-11-15T10:01:25;18.30;98.40
73277;DHT22;61501;43.316;5.372;2022-11-15T10:03:55;18.30;98.40
73277;DHT22;61501;43.316;5.372;2022-11-15T10:06:26;18.50;97.90
73277;DHT22;61501;43.316;5.372;2022-11-15T10:09:14;18.70;97.30
73277;DHT22;61501;43.316;5.372;2022-11-15T10:11:41;19.00;96.60
73277;DHT22;61501;43.316;5.372;2022-11-15T10:14:13;18.90;96.80
73277;DHT22;61501;43.316;5.372;2022-11-15T10:22:46;18.80;96.60
73277;DHT22;61501;43.316;5.372;2022-11-15T10:25:21;18.70;96.70
73277;DHT22;61501;43.316;5.372;2022-11-15T10:30:34;18.70;97.50
73277;DHT22;61501;43.316;5.372;2022-11-15T10:41:28;18.70;97.00
73277;DHT22;61501;43.316;5.372;2022-11-15T10:46:37;18.80;96.60
73277;DHT22;61501;43.316;5.372;2022-11-15T10:49:26;19.00;96.30
73277;DHT22;61501;43.316;5.372;2022-11-15T10:51:57;19.00;96.40
73277;DHT22;61501;43.316;5.372;2022-11-15T10:56:56;19.00;96.30
73277;DHT22;61501;43.316;5.372;2022-11-15T10:59:35;19.10;95.90
73277;DHT22;61501;43.316;5.372;2022-11-15T11:02:02;19.20;95.70
73277;DHT22;61501;43.316;5.372;2022-11-15T11:04:27;19.20;95.70
73277;DHT22;61501;43.316;5.372;2022-11-15T11:06:56;19.50;95.10
73277;DHT22;61501;43.316;5.372;2022-11-15T11:09:23;19.50;95.00
73277;DHT22;61501;43.316;5.372;2022-11-15T11:11:51;19.70;94.60
73277;DHT22;61501;43.316;5.372;2022-11-15T11:14:24;19.90;93.90
73277;DHT22;61501;43.316;5.372;2022-11-15T11:25:38;20.10;93.60
73277;DHT22;61501;43.316;5.372;2022-11-15T11:47:40;23.80;76.20
73277;DHT22;61501;43.316;5.372;2022-11-15T11:50:15;24.40;73.50
73277;DHT22;61501;43.316;5.372;2022-11-15T11:55:32;25.70;68.30
73277;DHT22;61501;43.316;5.372;2022-11-15T11:58:12;25.80;67.40
73277;DHT22;61501;43.316;5.372;2022-11-15T12:00:43;26.30;65.60
73277;DHT22;61501;43.316;5.372;2022-11-15T12:06:29;26.20;65.30
73277;DHT22;61501;43.316;5.372;2022-11-15T12:12:06;23.90;73.20
73277;DHT22;61501;43.316;5.372;2022-11-15T12:14:46;22.90;79.30
73277;DHT22;61501;43.316;5.372;2022-11-15T12:17:21;21.90;84.20
73277;DHT22;61501;43.316;5.372;2022-11-15T12:19:48;21.50;87.70
73277;DHT22;61501;43.316;5.372;2022-11-15T12:22:19;21.00;90.10
73277;DHT22;61501;43.316;5.372;2022-11-15T12:30:25;20.50;92.00
73277;DHT22;61501;43.316;5.372;2022-11-15T12:33:01;20.60;92.20
73277;DHT22;61501;43.316;5.372;2022-11-15T12:35:29;20.90;91.20
73277;DHT22;61501;43.316;5.372;2022-11-15T12:37:56;21.10;91.00
73277;DHT22;61501;43.316;5.372;2022-11-15T12:51:01;22.40;85.30
73277;DHT22;61501;43.316;5.372;2022-11-15T12:53:33;23.00;82.10
73277;DHT22;61501;43.316;5.372;2022-11-15T13:04:25;27.10;64.80
73277;DHT22;61501;43.316;5.372;2022-11-15T13:07:04;28.00;61.20
73277;DHT22;61501;43.316;5.372;2022-11-15T16:17:52;19.30;98.50
73277;DHT22;61501;43.316;5.372;2022-11-15T16:22:55;19.10;99.00
73277;DHT22;61501;43.316;5.372;2022-11-15T16:25:21;19.10;99.00
73277;DHT22;61501;43.316;5.372;2022-11-15T16:27:48;19.10;98.90
73277;DHT22;61501;43.316;5.372;2022-11-15T16:30:19;19.10;99.10
73277;DHT22;61501;43.316;5.372;2022-11-15T16:32:45;19.10;99.10
73277;DHT22;61501;43.316;5.372;2022-11-15T16:35:15;19.10;98.90
73277;DHT22;61501;43.316;5.372;2022-11-15T16:37:42;19.10;98.70
73277;DHT22;61501;43.316;5.372;2022-11-15T16:40:30;19.10;98.70
73277;DHT22;61501;43.316;5.372;2022-11-15T16:42:57;19.10;98.80
73277;DHT22;61501;43.316;5.372;2022-11-15T16:45:24;19.10;98.80
73277;DHT22;61501;43.316;5.372;2022-11-15T16:47:51;19.10;99.00
73277;DHT22;61501;43.316;5.372;2022-11-15T16:50:26;19.10;98.80
73277;DHT22;61501;43.316;5.372;2022-11-15T16:52:53;19.10;98.60
73277;DHT22;61501;43.316;5.372;2022-11-15T16:55:20;19.10;98.50
73277;DHT22;61501;43.316;5.372;2022-11-15T16:57:46;19.10;98.60
73277;DHT22;61501;43.316;5.372;2022-11-15T17:00:12;19.10;98.50
73277;DHT22;61501;43.316;5.372;2022-11-15T17:02:47;19.10;98.60
73277;DHT22;61501;43.316;5.372;2022-11-15T17:05:15;19.10;98.90
73277;DHT22;61501;43.316;5.372;2022-11-15T17:07:40;19.10;98.40
73277;DHT22;61501;43.316;5.372;2022-11-15T17:10:08;19.00;98.60
73277;DHT22;61501;43.316;5.372;2022-11-15T17:12:35;19.10;98.60
73277;DHT22;61501;43.316;5.372;2022-11-15T17:15:01;19.10;98.60
73277;DHT22;61501;43.316;5.372;2022-11-15T17:17:27;19.10;98.70
73277;DHT22;61501;43.316;5.372;2022-11-15T17:19:52;19.10;98.70
73277;DHT22;61501;43.316;5.372;2022-11-15T17:22:19;19.10;98.80
73277;DHT22;61501;43.316;5.372;2022-11-15T17:24:45;19.10;98.80
73277;DHT22;61501;43.316;5.372;2022-11-15T17:27:11;19.10;98.80
73277;DHT22;61501;43.316;5.372;2022-11-15T17:29:37;19.10;98.70
73277;DHT22;61501;43.316;5.372;2022-11-15T17:32:02;19.10;98.90
73277;DHT22;61501;43.316;5.372;2022-11-15T17:34:28;19.10;99.20
73277;DHT22;61501;43.316;5.372;2022-11-15T17:36:53;19.10;99.00
73277;DHT22;61501;43.316;5.372;2022-11-15T17:39:19;19.10;99.00
73277;DHT22;61501;43.316;5.372;2022-11-15T17:41:46;19.10;98.90
73277;DHT22;61501;43.316;5.372;2022-11-15T17:44:11;19.10;99.00
73277;DHT22;61501;43.316;5.372;2022-11-15T17:46:37;19.10;99.10
73277;DHT22;61501;43.316;5.372;2022-11-15T17:49:05;19.10;99.20
73277;DHT22;61501;43.316;5.372;2022-11-15T17:51:31;19.10;99.30
73277;DHT22;61501;43.316;5.372;2022-11-15T17:53:56;19.00;99.30
73277;DHT22;61501;43.316;5.372;2022-11-15T17:56:24;19.10;98.70
73277;DHT22;61501;43.316;5.372;2022-11-15T17:58:52;19.10;98.90
73277;DHT22;61501;43.316;5.372;2022-11-15T18:03:45;19.00;99.70
73277;DHT22;61501;43.316;5.372;2022-11-15T18:06:12;19.00;99.30
73277;DHT22;61501;43.316;5.372;2022-11-15T18:08:39;19.00;99.40
73277;DHT22;61501;43.316;5.372;2022-11-15T18:11:08;18.90;99.30
73277;DHT22;61501;43.316;5.372;2022-11-15T18:13:36;18.90;99.30
73277;DHT22;61501;43.316;5.372;2022-11-15T18:16:06;18.90;99.20
73277;DHT22;61501;43.316;5.372;2022-11-15T18:18:33;18.90;99.30
73277;DHT22;61501;43.316;5.372;2022-11-15T18:21:15;18.90;99.30
73277;DHT22;61501;43.316;5.372;2022-11-15T18:23:42;18.90;99.30
73277;DHT22;61501;43.316;5.372;2022-11-15T18:26:11;18.90;99.40
73277;DHT22;61501;43.316;5.372;2022-11-15T18:28:40;18.90;99.40
73277;DHT22;61501;43.316;5.372;2022-11-15T18:31:17;18.90;99.40
73277;DHT22;61501;43.316;5.372;2022-11-15T18:33:43;19.00;99.30
73277;DHT22;61501;43.316;5.372;2022-11-15T18:36:12;19.00;99.30
73277;DHT22;61501;43.316;5.372;2022-11-15T18:38:38;19.00;99.20
73277;DHT22;61501;43.316;5.372;2022-11-15T18:41:15;19.00;99.30
73277;DHT22;61501;43.316;5.372;2022-11-15T18:43:43;19.00;99.20
73277;DHT22;61501;43.316;5.372;2022-11-15T18:46:14;19.00;99.20
73277;DHT22;61501;43.316;5.372;2022-11-15T18:48:41;19.00;99.20
73277;DHT22;61501;43.316;5.372;2022-11-15T18:51:10;19.00;99.20
73277;DHT22;61501;43.316;5.372;2022-11-15T18:53:36;18.90;99.20
73277;DHT22;61501;43.316;5.372;2022-11-15T18:56:04;19.00;99.10
73277;DHT22;61501;43.316;5.372;2022-11-15T18:58:32;19.00;99.10
73277;DHT22;61501;43.316;5.372;2022-11-15T19:01:09;19.00;99.30
73277;DHT22;61501;43.316;5.372;2022-11-15T19:03:39;19.10;99.60
73277;DHT22;61501;43.316;5.372;2022-11-15T19:06:08;19.10;99.20
73277;DHT22;61501;43.316;5.372;2022-11-15T19:08:38;19.10;99.10
73277;DHT22;61501;43.316;5.372;2022-11-15T19:11:12;19.10;99.20
73277;DHT22;61501;43.316;5.372;2022-11-15T19:13:39;19.10;99.20
73277;DHT22;61501;43.316;5.372;2022-11-15T19:16:05;19.10;99.20
73277;DHT22;61501;43.316;5.372;2022-11-15T19:18:31;19.10;99.10
73277;DHT22;61501;43.316;5.372;2022-11-15T19:21:02;19.10;99.00
73277;DHT22;61501;43.316;5.372;2022-11-15T19:23:31;19.10;98.80
73277;DHT22;61501;43.316;5.372;2022-11-15T19:25:58;19.10;98.80
73277;DHT22;61501;43.316;5.372;2022-11-15T19:28:27;19.00;98.90
73277;DHT22;61501;43.316;5.372;2022-11-15T19:31:14;19.00;99.00
73277;DHT22;61501;43.316;5.372;2022-11-15T19:33:41;18.90;99.10
73277;DHT22;61501;43.316;5.372;2022-11-15T19:36:31;18.80;99.30
73277;DHT22;61501;43.316;5.372;2022-11-15T19:38:59;18.80;99.40
73277;DHT22;61501;43.316;5.372;2022-11-15T19:41:25;18.70;99.70
73277;DHT22;61501;43.316;5.372;2022-11-15T19:43:51;18.80;99.70
73277;DHT22;61501;43.316;5.372;2022-11-15T19:46:19;18.70;99.60
73277;DHT22;61501;43.316;5.372;2022-11-15T19:48:46;18.70;99.60
73277;DHT22;61501;43.316;5.372;2022-11-15T19:51:14;18.70;99.60
73277;DHT22;61501;43.316;5.372;2022-11-15T19:53:41;18.70;99.50
73277;DHT22;61501;43.316;5.372;2022-11-15T19:56:10;18.70;99.60
73277;DHT22;61501;43.316;5.372;2022-11-15T19:58:36;18.70;99.60
73277;DHT22;61501;43.316;5.372;2022-11-15T20:01:08;18.70;99.90
73277;DHT22;61501;43.316;5.372;2022-11-15T20:03:38;18.60;99.80
73277;DHT22;61501;43.316;5.372;2022-11-15T20:06:12;18.60;99.80
73277;DHT22;61501;43.316;5.372;2022-11-15T20:08:40;18.60;99.90
73277;DHT22;61501;43.316;5.372;2022-11-15T20:11:05;18.60;99.80
73277;DHT22;61501;43.316;5.372;2022-11-15T20:13:31;18.60;99.90
73277;DHT22;61501;43.316;5.372;2022-11-15T20:15:57;18.60;99.90
73277;DHT22;61501;43.316;5.372;2022-11-15T20:18:25;18.60;99.90
73277;DHT22;61501;43.316;5.372;2022-11-15T20:20:51;18.60;99.90
73277;DHT22;61501;43.316;5.372;2022-11-15T20:23:17;18.60;99.90
73277;DHT22;61501;43.316;5.372;2022-11-15T20:25:44;18.60;99.90
73277;DHT22;61501;43.316;5.372;2022-11-15T20:28:15;18.60;99.90
73277;DHT22;61501;43.316;5.372;2022-11-15T20:30:45;18.60;99.90
73277;DHT22;61501;43.316;5.372;2022-11-15T20:33:12;18.60;99.90
73277;DHT22;61501;43.316;5.372;2022-11-15T20:35:38;18.60;99.90
73277;DHT22;61501;43.316;5.372;2022-11-15T20:38:07;18.60;99.90
73277;DHT22;61501;43.316;5.372;2022-11-15T20:40:33;18.60;99.90
73277;DHT22;61501;43.316;5.372;2022-11-15T20:42:59;18.50;99.90
73277;DHT22;61501;43.316;5.372;2022-11-15T20:45:24;18.50;99.90
73277;DHT22;61501;43.316;5.372;2022-11-15T20:47:53;18.50;99.90
73277;DHT22;61501;43.316;5.372;2022-11-15T20:50:19;18.50;99.90
73277;DHT22;61501;43.316;5.372;2022-11-15T20:52:45;18.50;99.90
73277;DHT22;61501;43.316;5.372;2022-11-15T20:55:10;18.40;99.90
73277;DHT22;61501;43.316;5.372;2022-11-15T20:57:36;18.50;99.90
73277;DHT22;61501;43.316;5.372;2022-11-15T21:00:02;18.50;99.90
73277;DHT22;61501;43.316;5.372;2022-11-15T21:02:27;18.50;99.90